Time;durP1;ratioP1;P1;durP2;ratioP2;P2;SDS_P1;SDS_P2;PMS_P1;PMS_P2;Temp;Humidity;BMP_temperature;BMP_pressure;BME280_temperature;BME280_humidity;BME280_pressure;Samples;Min_cycle;Max_cycle;Signal;HPM_P1;HPM_P2
2022/07/16 00:02:14;;;;;;;21.97;20.30;;;;;;;;;;5075266;28;20404;-69
2022/07/16 00:04:42;;;;;;;21.57;20.27;;;;;;;;;;5075366;28;20409;-69
2022/07/16 00:07:09;;;;;;;22.40;21.00;;;;;;;;;;5075343;28;20453;-69
2022/07/16 00:09:37;;;;;;;21.73;20.53;;;;;;;;;;5074969;28;20744;-69
2022/07/16 00:12:04;;;;;;;21.70;20.50;;;;;;;;;;5075387;28;20492;-69
2022/07/16 00:14:32;;;;;;;22.00;20.60;;;;;;;;;;5075113;28;20439;-69
2022/07/16 00:16:59;;;;;;;21.80;20.60;;;;;;;;;;5074758;28;20917;-69
2022/07/16 00:19:27;;;;;;;21.70;20.50;;;;;;;;;;5075077;28;20436;-69
2022/07/16 00:21:55;;;;;;;21.67;20.57;;;;;;;;;;5075026;28;20483;-69
2022/07/16 00:24:22;;;;;;;22.30;20.90;;;;;;;;;;5075079;28;20442;-69
2022/07/16 00:26:50;;;;;;;22.67;21.00;;;;;;;;;;5074810;28;20447;-69
2022/07/16 00:29:18;;;;;;;21.47;19.90;;;;;;;;;;5074318;28;20425;-69
2022/07/16 00:31:47;;;;;;;21.40;20.23;;;;;;;;;;5074712;28;20441;-69
2022/07/16 00:34:14;;;;;;;22.53;21.23;;;;;;;;;;5074814;28;20854;-69
2022/07/16 00:36:43;;;;;;;22.00;20.70;;;;;;;;;;5074900;28;20443;-70
2022/07/16 00:39:11;;;;;;;21.80;20.60;;;;;;;;;;5074254;28;20479;-68
2022/07/16 00:41:39;;;;;;;22.30;20.90;;;;;;;;;;5074553;28;20969;-69
2022/07/16 00:44:07;;;;;;;21.60;20.40;;;;;;;;;;5074303;28;20403;-69
2022/07/16 00:46:35;;;;;;;21.27;20.07;;;;;;;;;;5074318;28;20774;-69
2022/07/16 00:49:02;;;;;;;21.60;20.40;;;;;;;;;;5074139;28;20408;-69
2022/07/16 00:51:30;;;;;;;22.03;20.80;;;;;;;;;;5074619;28;20426;-69
2022/07/16 00:53:59;;;;;;;22.80;20.63;;;;;;;;;;5074459;28;20416;-69
2022/07/16 00:56:27;;;;;;;22.23;20.83;;;;;;;;;;5074227;28;20416;-69
2022/07/16 00:58:55;;;;;;;21.40;20.30;;;;;;;;;;5074494;28;20410;-69
2022/07/16 01:01:23;;;;;;;21.10;19.90;;;;;;;;;;5074219;28;20569;-69
2022/07/16 01:03:50;;;;;;;21.60;20.40;;;;;;;;;;5074006;28;20417;-69
2022/07/16 01:06:18;;;;;;;21.10;20.00;;;;;;;;;;5074155;28;20418;-69
2022/07/16 01:08:46;;;;;;;21.10;19.70;;;;;;;;;;5074327;28;20438;-69
2022/07/16 01:11:16;;;;;;;21.03;19.83;;;;;;;;;;5074689;28;20441;-69
2022/07/16 01:13:44;;;;;;;21.47;20.27;;;;;;;;;;5073840;28;20797;-68
2022/07/16 01:16:11;;;;;;;21.17;19.97;;;;;;;;;;5073973;28;20443;-69
2022/07/16 01:18:39;;;;;;;21.63;20.33;;;;;;;;;;5073744;28;20408;-69
2022/07/16 01:21:07;;;;;;;21.20;19.90;;;;;;;;;;5073991;28;20453;-69
2022/07/16 01:23:36;;;;;;;20.77;19.67;;;;;;;;;;5073914;28;20433;-69
2022/07/16 01:26:04;;;;;;;21.30;20.10;;;;;;;;;;5073896;28;20416;-69
2022/07/16 01:28:31;;;;;;;21.47;20.27;;;;;;;;;;5073594;28;20444;-69
2022/07/16 01:31:00;;;;;;;21.70;20.50;;;;;;;;;;5073627;28;20947;-68
2022/07/16 01:33:28;;;;;;;21.97;20.70;;;;;;;;;;5073727;28;20433;-69
2022/07/16 01:35:57;;;;;;;21.90;20.60;;;;;;;;;;5073678;28;20413;-68
2022/07/16 01:38:25;;;;;;;21.93;20.63;;;;;;;;;;5073300;28;20760;-69
2022/07/16 01:40:54;;;;;;;21.70;20.40;;;;;;;;;;5073190;28;20465;-69
2022/07/16 01:43:22;;;;;;;21.93;20.60;;;;;;;;;;5073245;28;20418;-69
2022/07/16 01:45:50;;;;;;;20.00;18.80;;;;;;;;;;5073698;28;20467;-70
2022/07/16 01:48:17;;;;;;;20.30;19.10;;;;;;;;;;5073446;28;20409;-69
2022/07/16 01:50:45;;;;;;;21.87;20.67;;;;;;;;;;5073606;28;20406;-70
2022/07/16 01:53:13;;;;;;;22.03;20.77;;;;;;;;;;5073361;28;20425;-69
2022/07/16 01:55:41;;;;;;;20.80;19.60;;;;;;;;;;5072985;28;20478;-70
2022/07/16 01:58:10;;;;;;;21.07;19.97;;;;;;;;;;5073105;28;20447;-70
2022/07/16 02:00:38;;;;;;;22.10;20.90;;;;;;;;;;5073278;28;20435;-70
2022/07/16 02:03:06;;;;;;;20.93;19.73;;;;;;;;;;5073087;28;20447;-70
2022/07/16 02:05:34;;;;;;;21.07;19.87;;;;;;;;;;5073287;28;20429;-70
2022/07/16 02:08:01;;;;;;;21.70;20.50;;;;;;;;;;5072897;28;20413;-70
2022/07/16 02:10:28;;;;;;;20.97;19.87;;;;;;;;;;5073191;28;20851;-69
2022/07/16 02:12:56;;;;;;;21.17;20.00;;;;;;;;;;5073366;28;20417;-70
2022/07/16 02:15:24;;;;;;;21.10;19.90;;;;;;;;;;5072958;28;20437;-69
2022/07/16 02:17:52;;;;;;;20.90;19.70;;;;;;;;;;5072736;28;20882;-70
2022/07/16 02:20:19;;;;;;;21.60;20.50;;;;;;;;;;5073262;28;20429;-69
2022/07/16 02:22:46;;;;;;;21.90;20.80;;;;;;;;;;5072575;28;20567;-69
2022/07/16 02:25:14;;;;;;;22.23;20.83;;;;;;;;;;5072747;28;20880;-69
2022/07/16 02:28:05;;;;;;;21.53;20.43;;;;;;;;;;5072951;28;20436;-69
2022/07/16 02:30:30;;;;;;;21.43;20.23;;;;;;;;;;5072498;28;20973;-69
2022/07/16 02:32:58;;;;;;;20.90;19.70;;;;;;;;;;5072718;28;20414;-70
2022/07/16 02:35:25;;;;;;;20.60;19.50;;;;;;;;;;5073005;28;20402;-69
2022/07/16 02:37:53;;;;;;;21.63;20.27;;;;;;;;;;5072780;28;20555;-69
2022/07/16 02:40:20;;;;;;;20.93;19.73;;;;;;;;;;5072452;28;20482;-69
2022/07/16 02:42:47;;;;;;;21.83;20.53;;;;;;;;;;5072806;28;20476;-69
2022/07/16 02:45:15;;;;;;;21.00;19.90;;;;;;;;;;5072678;28;20441;-69
2022/07/16 02:47:43;;;;;;;21.60;20.30;;;;;;;;;;5072360;28;20485;-69
2022/07/16 02:50:11;;;;;;;22.37;20.87;;;;;;;;;;5072429;28;20426;-69
2022/07/16 02:52:38;;;;;;;22.57;20.97;;;;;;;;;;5076193;28;20455;-69
2022/07/16 02:55:06;;;;;;;22.10;20.90;;;;;;;;;;5076645;28;20786;-69
2022/07/16 02:57:34;;;;;;;21.00;19.90;;;;;;;;;;5076865;28;20879;-69
2022/07/16 03:00:01;;;;;;;22.10;20.90;;;;;;;;;;5076398;28;20432;-69
2022/07/16 03:02:29;;;;;;;21.80;20.40;;;;;;;;;;5076453;28;20482;-69
2022/07/16 03:04:57;;;;;;;21.67;20.47;;;;;;;;;;5076515;28;20408;-70
2022/07/16 03:07:25;;;;;;;21.73;20.53;;;;;;;;;;5076860;28;20436;-69
2022/07/16 03:09:52;;;;;;;22.70;21.30;;;;;;;;;;5076614;28;20436;-69
2022/07/16 03:12:19;;;;;;;21.67;20.47;;;;;;;;;;5076647;28;20538;-69
2022/07/16 03:14:47;;;;;;;21.50;20.10;;;;;;;;;;5076531;28;20451;-69
2022/07/16 03:17:14;;;;;;;21.40;20.20;;;;;;;;;;5076491;28;20783;-70
2022/07/16 03:19:42;;;;;;;21.60;20.40;;;;;;;;;;5076069;28;20412;-69
2022/07/16 03:22:11;;;;;;;22.23;20.73;;;;;;;;;;5075872;28;20452;-69
2022/07/16 03:24:38;;;;;;;21.63;20.33;;;;;;;;;;5076204;28;20436;-69
2022/07/16 03:27:05;;;;;;;21.40;20.30;;;;;;;;;;5076122;28;20801;-70
2022/07/16 03:29:32;;;;;;;22.80;21.20;;;;;;;;;;5076118;28;20417;-70
2022/07/16 03:32:00;;;;;;;21.27;20.07;;;;;;;;;;5076269;28;20451;-69
2022/07/16 03:34:27;;;;;;;22.57;21.07;;;;;;;;;;5076389;28;20488;-69
2022/07/16 03:36:54;;;;;;;22.23;20.83;;;;;;;;;;5075975;28;20485;-69
2022/07/16 03:39:23;;;;;;;21.70;20.30;;;;;;;;;;5075696;28;20461;-69
2022/07/16 03:41:50;;;;;;;23.13;21.50;;;;;;;;;;5075661;28;20490;-70
2022/07/16 03:44:18;;;;;;;23.10;21.80;;;;;;;;;;5075842;28;20406;-70
2022/07/16 03:46:45;;;;;;;22.10;20.90;;;;;;;;;;5075565;28;20413;-70
2022/07/16 03:49:12;;;;;;;21.83;20.63;;;;;;;;;;5075386;28;20453;-69
2022/07/16 03:51:40;;;;;;;22.03;20.67;;;;;;;;;;5075839;28;20409;-69
2022/07/16 03:54:07;;;;;;;22.20;21.00;;;;;;;;;;5075777;28;20474;-69
2022/07/16 03:56:36;;;;;;;22.67;21.23;;;;;;;;;;5075578;28;20410;-69
2022/07/16 03:59:04;;;;;;;22.53;21.33;;;;;;;;;;5075301;28;20432;-70
2022/07/16 04:01:31;;;;;;;23.07;21.43;;;;;;;;;;5074527;28;20483;-69
2022/07/16 04:03:59;;;;;;;23.10;21.33;;;;;;;;;;5075633;28;20407;-69
2022/07/16 04:06:26;;;;;;;22.37;21.07;;;;;;;;;;5075508;28;20435;-69
2022/07/16 04:08:53;;;;;;;22.30;21.00;;;;;;;;;;5075716;28;20406;-69
2022/07/16 04:11:20;;;;;;;22.60;21.20;;;;;;;;;;5075150;28;20417;-69
2022/07/16 04:13:49;;;;;;;22.10;20.90;;;;;;;;;;5075433;28;20415;-69
2022/07/16 04:16:16;;;;;;;22.50;21.30;;;;;;;;;;5075272;28;20439;-69
2022/07/16 04:18:44;;;;;;;22.97;21.60;;;;;;;;;;5074839;28;20420;-69
2022/07/16 04:21:11;;;;;;;22.00;20.70;;;;;;;;;;5074892;28;20491;-69
2022/07/16 04:23:38;;;;;;;22.30;20.90;;;;;;;;;;5075335;28;20416;-70
2022/07/16 04:26:06;;;;;;;22.70;21.30;;;;;;;;;;5075115;28;20406;-69
2022/07/16 04:28:33;;;;;;;22.00;20.60;;;;;;;;;;5075160;28;20422;-69
2022/07/16 04:31:02;;;;;;;21.80;20.50;;;;;;;;;;5074630;28;20936;-68
2022/07/16 04:33:29;;;;;;;21.77;20.40;;;;;;;;;;5075071;28;20418;-68
2022/07/16 04:35:56;;;;;;;22.30;21.10;;;;;;;;;;5074601;28;20409;-69
2022/07/16 04:38:24;;;;;;;21.50;20.27;;;;;;;;;;5074423;28;20454;-69
2022/07/16 04:40:51;;;;;;;22.67;21.37;;;;;;;;;;5074456;28;20418;-69
2022/07/16 04:43:18;;;;;;;21.80;20.60;;;;;;;;;;5074706;28;20454;-69
2022/07/16 04:45:45;;;;;;;22.53;21.13;;;;;;;;;;5074496;28;20417;-69
2022/07/16 04:48:14;;;;;;;23.03;21.53;;;;;;;;;;5074911;28;21099;-69
2022/07/16 04:50:42;;;;;;;22.70;21.40;;;;;;;;;;5074502;28;20423;-69
2022/07/16 04:53:09;;;;;;;22.80;21.50;;;;;;;;;;5074179;28;20458;-69
2022/07/16 04:55:36;;;;;;;23.47;22.07;;;;;;;;;;5074082;28;20990;-69
2022/07/16 04:58:16;;;;;;;23.27;21.87;;;;;;;;;;5074395;28;20430;-69
2022/07/16 05:00:44;;;;;;;22.97;21.67;;;;;;;;;;5074327;28;20410;-69
2022/07/16 05:03:11;;;;;;;23.37;21.97;;;;;;;;;;5074240;28;20490;-69
2022/07/16 05:05:40;;;;;;;22.77;21.37;;;;;;;;;;5074049;28;20405;-69
2022/07/16 05:08:08;;;;;;;22.57;21.27;;;;;;;;;;5074084;28;20440;-69
2022/07/16 05:10:35;;;;;;;23.80;22.30;;;;;;;;;;5074194;28;20418;-69
2022/07/16 05:13:03;;;;;;;24.53;23.03;;;;;;;;;;5073425;28;20534;-69
2022/07/16 05:15:31;;;;;;;25.50;24.00;;;;;;;;;;5073367;28;20415;-69
2022/07/16 05:17:59;;;;;;;23.80;22.40;;;;;;;;;;5073635;28;20414;-68
2022/07/16 05:20:26;;;;;;;24.83;23.23;;;;;;;;;;5073722;28;20407;-69
2022/07/16 05:22:55;;;;;;;25.23;23.60;;;;;;;;;;5073749;28;20465;-69
2022/07/16 05:25:22;;;;;;;24.70;23.20;;;;;;;;;;5073642;28;20435;-69
2022/07/16 05:27:50;;;;;;;24.10;22.60;;;;;;;;;;5073983;28;20417;-69
2022/07/16 05:30:17;;;;;;;24.27;22.67;;;;;;;;;;5073997;28;20532;-69
2022/07/16 05:32:46;;;;;;;23.20;21.80;;;;;;;;;;5073751;28;20782;-69
2022/07/16 05:35:14;;;;;;;24.40;22.90;;;;;;;;;;5074978;28;20519;-69
2022/07/16 05:37:42;;;;;;;24.80;23.17;;;;;;;;;;5074642;28;20457;-69
2022/07/16 05:40:24;;;;;;;22.90;21.60;;;;;;;;;;5075166;28;20872;-68
2022/07/16 05:42:52;;;;;;;23.70;22.30;;;;;;;;;;5074985;28;20487;-69
2022/07/16 05:45:20;;;;;;;22.70;21.23;;;;;;;;;;5075365;28;20455;-69
2022/07/16 05:47:47;;;;;;;24.30;22.53;;;;;;;;;;5075092;28;20480;-69
2022/07/16 05:50:15;;;;;;;25.40;23.60;;;;;;;;;;5075456;28;20466;-69
2022/07/16 05:52:43;;;;;;;23.20;21.80;;;;;;;;;;5075603;28;20450;-69
2022/07/16 05:55:11;;;;;;;23.80;22.30;;;;;;;;;;5074951;28;20467;-69
2022/07/16 05:57:40;;;;;;;24.50;23.00;;;;;;;;;;5074245;28;20413;-69
2022/07/16 06:00:10;;;;;;;23.17;21.83;;;;;;;;;;5074881;28;20439;-69
2022/07/16 06:02:38;;;;;;;22.60;21.07;;;;;;;;;;5074205;28;20473;-70
2022/07/16 06:05:06;;;;;;;22.90;21.60;;;;;;;;;;5074697;28;20406;-69
2022/07/16 06:07:33;;;;;;;21.70;20.20;;;;;;;;;;5074627;28;20427;-69
2022/07/16 06:10:01;;;;;;;21.30;20.10;;;;;;;;;;5074491;28;20436;-69
2022/07/16 06:12:28;;;;;;;22.77;21.33;;;;;;;;;;5074086;28;20978;-69
2022/07/16 06:14:57;;;;;;;22.63;21.33;;;;;;;;;;5074439;28;20443;-69
2022/07/16 06:17:25;;;;;;;22.50;21.20;;;;;;;;;;5074573;28;20472;-69
2022/07/16 06:19:53;;;;;;;21.80;20.60;;;;;;;;;;5074597;28;20426;-70
2022/07/16 06:22:20;;;;;;;21.50;20.30;;;;;;;;;;5074542;28;20457;-70
2022/07/16 06:24:48;;;;;;;21.90;20.60;;;;;;;;;;5074002;28;20921;-70
2022/07/16 06:27:16;;;;;;;21.07;19.97;;;;;;;;;;5074467;28;20436;-69
2022/07/16 06:29:43;;;;;;;21.93;20.73;;;;;;;;;;5074526;28;20476;-69
2022/07/16 06:32:12;;;;;;;22.60;21.30;;;;;;;;;;5074852;28;20462;-69
2022/07/16 06:34:40;;;;;;;22.70;21.30;;;;;;;;;;5074756;28;20427;-69
2022/07/16 06:37:08;;;;;;;21.97;20.67;;;;;;;;;;5074532;28;20452;-69
2022/07/16 06:39:35;;;;;;;22.30;20.87;;;;;;;;;;5074450;28;20516;-70
2022/07/16 06:42:03;;;;;;;22.10;20.80;;;;;;;;;;5074534;28;20480;-69
2022/07/16 06:44:30;;;;;;;21.63;20.40;;;;;;;;;;5074446;28;20403;-69
2022/07/16 06:46:58;;;;;;;21.73;20.53;;;;;;;;;;5074347;28;21045;-69
2022/07/16 06:49:27;;;;;;;22.00;20.60;;;;;;;;;;5074042;28;20817;-69
2022/07/16 06:51:55;;;;;;;21.30;20.00;;;;;;;;;;5074590;28;20421;-69
2022/07/16 06:54:22;;;;;;;21.83;20.63;;;;;;;;;;5074267;28;20461;-69
2022/07/16 06:56:50;;;;;;;21.63;20.43;;;;;;;;;;5074118;28;20508;-69
2022/07/16 06:59:19;;;;;;;22.10;20.70;;;;;;;;;;5074143;28;20457;-69
2022/07/16 07:01:46;;;;;;;20.73;19.63;;;;;;;;;;5073951;28;20416;-69
2022/07/16 07:04:14;;;;;;;21.17;19.90;;;;;;;;;;5073943;28;20457;-69
2022/07/16 07:06:43;;;;;;;20.47;19.30;;;;;;;;;;5074156;28;20433;-69
2022/07/16 07:09:11;;;;;;;20.60;19.50;;;;;;;;;;5074353;28;20421;-69
2022/07/16 07:11:40;;;;;;;21.40;20.07;;;;;;;;;;5074980;28;20421;-69
2022/07/16 07:14:11;;;;;;;21.23;20.03;;;;;;;;;;5073331;28;20994;-70
2022/07/16 07:16:39;;;;;;;20.50;19.40;;;;;;;;;;5073919;28;20489;-70
2022/07/16 07:19:06;;;;;;;20.50;19.30;;;;;;;;;;5073904;28;20414;-70
2022/07/16 07:21:34;;;;;;;20.60;19.30;;;;;;;;;;5073856;28;20455;-70
2022/07/16 07:24:03;;;;;;;20.27;19.17;;;;;;;;;;5073336;28;20974;-70
2022/07/16 07:26:31;;;;;;;20.93;19.70;;;;;;;;;;5074011;28;20437;-70
2022/07/16 07:29:00;;;;;;;19.90;18.90;;;;;;;;;;5073752;28;20464;-70
2022/07/16 07:31:28;;;;;;;20.37;19.27;;;;;;;;;;5073557;28;20453;-70
2022/07/16 07:33:56;;;;;;;20.40;19.30;;;;;;;;;;5073448;28;20414;-70
2022/07/16 07:36:25;;;;;;;20.50;19.40;;;;;;;;;;5073726;28;20529;-70
2022/07/16 07:38:53;;;;;;;20.40;19.10;;;;;;;;;;5077546;28;20821;-71
2022/07/16 07:41:22;;;;;;;20.40;19.27;;;;;;;;;;5077368;28;20502;-70
2022/07/16 07:43:50;;;;;;;19.63;18.63;;;;;;;;;;5076752;28;20453;-69
2022/07/16 07:46:18;;;;;;;20.27;19.17;;;;;;;;;;5077217;28;20516;-69
2022/07/16 07:48:47;;;;;;;20.43;19.00;;;;;;;;;;5076946;28;20452;-70
2022/07/16 07:51:15;;;;;;;21.10;19.90;;;;;;;;;;5077016;28;20442;-70
2022/07/16 07:53:43;;;;;;;20.63;19.50;;;;;;;;;;5076848;28;20485;-69
2022/07/16 07:56:12;;;;;;;20.27;19.03;;;;;;;;;;5077110;28;20907;-70
2022/07/16 07:58:41;;;;;;;20.17;19.07;;;;;;;;;;5077398;28;20882;-71
2022/07/16 08:01:10;;;;;;;20.93;19.63;;;;;;;;;;5079228;28;20848;-70
2022/07/16 08:03:37;;;;;;;21.40;19.93;;;;;;;;;;5076817;28;20818;-70
2022/07/16 08:06:05;;;;;;;21.07;19.73;;;;;;;;;;5076830;28;20516;-70
2022/07/16 08:08:32;;;;;;;20.97;19.77;;;;;;;;;;5076954;28;20494;-70
2022/07/16 08:11:00;;;;;;;22.63;21.10;;;;;;;;;;5076842;28;20441;-70
2022/07/16 08:13:28;;;;;;;21.67;20.37;;;;;;;;;;5076746;28;20788;-70
2022/07/16 08:15:57;;;;;;;22.57;21.17;;;;;;;;;;5076942;28;20830;-69
2022/07/16 08:18:25;;;;;;;22.67;21.37;;;;;;;;;;5081829;28;20523;-70
2022/07/16 08:20:52;;;;;;;22.33;21.03;;;;;;;;;;5078563;28;20435;-70
2022/07/16 08:25:44;;;;;;;21.73;20.53;;;;;;;;;;5077859;28;20820;-70
2022/07/16 08:26:14;;;;;;;22.57;21.33;;;;;;;;;;5076510;28;20434;-69
2022/07/16 08:28:42;;;;;;;24.10;22.63;;;;;;;;;;5076213;28;20411;-70
2022/07/16 08:31:13;;;;;;;23.23;21.93;;;;;;;;;;5076313;28;20460;-70
2022/07/16 08:33:41;;;;;;;23.10;21.83;;;;;;;;;;5076517;28;20448;-70
2022/07/16 08:36:11;;;;;;;24.60;23.20;;;;;;;;;;5076152;28;20808;-70
2022/07/16 08:38:39;;;;;;;22.03;20.70;;;;;;;;;;5075669;28;20471;-69
2022/07/16 08:41:07;;;;;;;22.00;20.70;;;;;;;;;;5075987;28;20439;-70
2022/07/16 08:43:35;;;;;;;22.80;21.40;;;;;;;;;;5075620;28;20519;-70
2022/07/16 08:46:03;;;;;;;24.00;22.40;;;;;;;;;;5075691;28;20423;-70
2022/07/16 08:48:33;;;;;;;22.83;21.53;;;;;;;;;;5075827;28;20769;-70
2022/07/16 08:51:05;;;;;;;22.70;21.40;;;;;;;;;;5075323;28;20791;-70
2022/07/16 08:53:33;;;;;;;23.13;21.83;;;;;;;;;;5075285;28;20534;-70
2022/07/16 08:56:02;;;;;;;22.93;21.63;;;;;;;;;;5075548;28;20457;-71
2022/07/16 08:58:31;;;;;;;24.50;23.00;;;;;;;;;;5075802;28;20431;-70
2022/07/16 09:00:59;;;;;;;23.30;22.00;;;;;;;;;;5075541;28;20399;-70
2022/07/16 09:03:27;;;;;;;22.43;21.23;;;;;;;;;;5075495;28;20989;-71
2022/07/16 09:05:56;;;;;;;23.50;22.00;;;;;;;;;;5076192;28;20412;-69
2022/07/16 09:08:24;;;;;;;22.43;21.13;;;;;;;;;;5076243;28;20516;-70
2022/07/16 09:10:52;;;;;;;23.40;22.10;;;;;;;;;;5075537;28;20449;-70
2022/07/16 09:13:19;;;;;;;24.13;22.70;;;;;;;;;;5074873;28;20471;-70
2022/07/16 09:15:47;;;;;;;23.77;22.27;;;;;;;;;;5076163;28;20448;-69
2022/07/16 09:18:19;;;;;;;22.93;21.53;;;;;;;;;;5075696;28;20456;-69
2022/07/16 09:20:48;;;;;;;24.10;22.53;;;;;;;;;;5075689;28;20952;-72
2022/07/16 09:23:28;;;;;;;23.70;22.00;;;;;;;;;;5075309;28;20498;-70
2022/07/16 09:25:58;;;;;;;23.20;21.60;;;;;;;;;;5075628;28;20402;-72
2022/07/16 09:28:27;;;;;;;22.57;21.37;;;;;;;;;;5075950;28;20570;-72
2022/07/16 09:30:55;;;;;;;23.50;22.00;;;;;;;;;;5084494;28;20455;-76
2022/07/16 09:33:24;;;;;;;23.33;21.93;;;;;;;;;;5079274;28;20462;-75
2022/07/16 09:36:06;;;;;;;23.30;21.70;;;;;;;;;;5075857;28;20467;-74
2022/07/16 09:38:48;;;;;;;23.27;21.80;;;;;;;;;;5076239;28;20940;-72
2022/07/16 09:41:16;;;;;;;22.27;21.03;;;;;;;;;;5076201;28;20469;-74
2022/07/16 09:43:44;;;;;;;22.37;21.10;;;;;;;;;;5077627;28;20486;-75
2022/07/16 09:46:17;;;;;;;23.60;21.90;;;;;;;;;;5094719;28;20484;-69
2022/07/16 09:48:45;;;;;;;22.70;21.27;;;;;;;;;;5094840;28;20444;-70
2022/07/16 09:51:21;;;;;;;22.90;21.50;;;;;;;;;;5095423;28;20459;-69
2022/07/16 09:53:51;;;;;;;24.27;22.30;;;;;;;;;;5095334;28;20818;-70
2022/07/16 09:56:20;;;;;;;23.50;21.90;;;;;;;;;;5094842;28;20954;-70
2022/07/16 09:58:48;;;;;;;23.53;22.10;;;;;;;;;;5094732;28;20419;-70
2022/07/16 10:01:17;;;;;;;23.87;22.20;;;;;;;;;;5094959;28;20443;-70
2022/07/16 10:03:44;;;;;;;23.20;21.80;;;;;;;;;;5094590;28;20469;-75
2022/07/16 10:06:12;;;;;;;21.73;20.23;;;;;;;;;;5095117;28;20475;-70
2022/07/16 10:08:44;;;;;;;23.17;21.67;;;;;;;;;;5094703;28;20461;-69
2022/07/16 10:11:14;;;;;;;21.97;20.47;;;;;;;;;;5095178;28;20462;-70
2022/07/16 10:13:44;;;;;;;23.10;21.50;;;;;;;;;;5094799;28;20508;-70
2022/07/16 10:16:12;;;;;;;22.83;21.40;;;;;;;;;;5094868;28;20936;-69
2022/07/16 10:18:41;;;;;;;23.40;21.90;;;;;;;;;;5094689;28;20466;-69
2022/07/16 10:21:13;;;;;;;23.47;22.07;;;;;;;;;;5095205;28;20444;-69
2022/07/16 10:23:42;;;;;;;23.07;21.73;;;;;;;;;;5094910;28;20515;-70
2022/07/16 10:26:11;;;;;;;22.40;21.20;;;;;;;;;;5095495;28;20459;-68
2022/07/16 10:28:46;;;;;;;23.30;21.90;;;;;;;;;;5095518;28;20448;-69
2022/07/16 10:31:32;;;;;;;24.10;22.70;;;;;;;;;;5095375;28;20475;-69
2022/07/16 10:34:18;;;;;;;23.73;22.30;;;;;;;;;;5085161;28;20487;-69
2022/07/16 10:36:46;;;;;;;23.17;21.77;;;;;;;;;;5094948;28;20440;-71
2022/07/16 10:39:15;;;;;;;23.43;21.93;;;;;;;;;;5094598;28;20488;-69
2022/07/16 10:41:48;;;;;;;23.37;22.03;;;;;;;;;;5093135;28;20414;-69
2022/07/16 10:44:17;;;;;;;22.80;21.50;;;;;;;;;;5092890;28;20571;-69
2022/07/16 10:46:54;;;;;;;23.17;21.87;;;;;;;;;;5091718;28;20407;-69
2022/07/16 10:49:22;;;;;;;23.40;22.00;;;;;;;;;;5092510;28;20444;-69
2022/07/16 10:51:59;;;;;;;24.10;22.50;;;;;;;;;;5092744;28;20907;-69
2022/07/16 10:54:27;;;;;;;23.53;21.93;;;;;;;;;;5092746;28;21012;-70
2022/07/16 10:56:56;;;;;;;23.07;21.57;;;;;;;;;;5092857;28;20462;-70
2022/07/16 10:59:25;;;;;;;23.40;22.00;;;;;;;;;;5092938;28;20936;-70
2022/07/16 11:01:53;;;;;;;24.73;22.93;;;;;;;;;;5092868;28;20414;-70
2022/07/16 11:04:27;;;;;;;23.60;22.03;;;;;;;;;;5092477;28;20454;-69
2022/07/16 11:06:54;;;;;;;23.67;22.07;;;;;;;;;;5092509;28;20450;-70
2022/07/16 11:09:25;;;;;;;25.17;23.37;;;;;;;;;;5092883;28;20468;-70
2022/07/16 11:11:53;;;;;;;23.20;21.70;;;;;;;;;;5093228;28;20428;-69
2022/07/16 11:14:20;;;;;;;23.30;22.00;;;;;;;;;;5096670;28;20418;-70
2022/07/16 11:16:52;;;;;;;22.70;21.30;;;;;;;;;;5096763;28;20417;-69
2022/07/16 11:19:19;;;;;;;23.70;22.00;;;;;;;;;;5096556;28;20820;-70
2022/07/16 11:21:54;;;;;;;22.03;20.57;;;;;;;;;;5096778;28;20485;-71
2022/07/16 11:24:21;;;;;;;23.50;21.97;;;;;;;;;;5096288;28;20879;-70
2022/07/16 11:26:49;;;;;;;22.77;21.30;;;;;;;;;;5096232;28;20904;-70
2022/07/16 11:29:16;;;;;;;23.30;21.50;;;;;;;;;;5096797;28;20432;-70
2022/07/16 11:31:44;;;;;;;23.33;21.60;;;;;;;;;;5096119;28;20436;-69
2022/07/16 11:34:12;;;;;;;22.17;20.73;;;;;;;;;;5085271;28;20522;-73
2022/07/16 11:36:41;;;;;;;23.60;21.90;;;;;;;;;;5075743;28;20762;-73
2022/07/16 11:39:09;;;;;;;22.80;21.40;;;;;;;;;;5075904;28;20546;-73
2022/07/16 11:41:37;;;;;;;22.80;21.20;;;;;;;;;;5076340;28;20420;-73
2022/07/16 11:44:09;;;;;;;21.60;20.20;;;;;;;;;;5075723;28;20940;-71
2022/07/16 11:46:42;;;;;;;21.77;20.57;;;;;;;;;;5075892;28;20441;-71
2022/07/16 11:49:10;;;;;;;23.23;21.63;;;;;;;;;;5075699;28;20415;-70
2022/07/16 11:51:40;;;;;;;22.80;21.37;;;;;;;;;;5075503;28;20445;-72
2022/07/16 11:54:08;;;;;;;23.20;21.60;;;;;;;;;;5075841;28;20477;-71
2022/07/16 11:56:36;;;;;;;22.00;20.70;;;;;;;;;;5075859;28;20416;-71
2022/07/16 11:59:03;;;;;;;22.07;20.67;;;;;;;;;;5075820;28;20535;-70
2022/07/16 12:01:35;;;;;;;22.20;20.87;;;;;;;;;;5075319;28;20412;-70
2022/07/16 12:04:02;;;;;;;22.67;21.07;;;;;;;;;;5075161;28;20888;-70
2022/07/16 12:06:29;;;;;;;22.27;20.97;;;;;;;;;;5075300;28;20433;-70
2022/07/16 12:08:58;;;;;;;22.90;21.50;;;;;;;;;;5075653;28;20452;-71
2022/07/16 12:11:32;;;;;;;24.00;22.40;;;;;;;;;;5075549;28;20408;-70
2022/07/16 12:13:59;;;;;;;23.07;21.40;;;;;;;;;;5075557;28;20419;-71
2022/07/16 12:16:27;;;;;;;23.20;21.70;;;;;;;;;;5075267;28;20415;-70
2022/07/16 12:19:05;;;;;;;23.13;21.67;;;;;;;;;;5075404;28;20460;-70
2022/07/16 12:21:34;;;;;;;23.43;21.83;;;;;;;;;;5078055;28;20607;-70
2022/07/16 12:24:02;;;;;;;23.20;21.70;;;;;;;;;;5076980;28;20855;-71
2022/07/16 12:26:31;;;;;;;23.30;21.50;;;;;;;;;;5074851;28;20775;-70
2022/07/16 12:28:59;;;;;;;21.93;20.63;;;;;;;;;;5075153;28;20561;-70
2022/07/16 12:31:30;;;;;;;22.40;20.90;;;;;;;;;;5074852;28;20419;-70
2022/07/16 12:33:57;;;;;;;23.47;22.07;;;;;;;;;;5074889;28;20818;-71
2022/07/16 12:36:31;;;;;;;23.00;21.60;;;;;;;;;;5074356;28;20441;-70
2022/07/16 12:39:02;;;;;;;22.83;21.37;;;;;;;;;;5074594;28;20484;-70
2022/07/16 12:41:31;;;;;;;23.00;21.70;;;;;;;;;;5074777;28;20470;-70
2022/07/16 12:44:00;;;;;;;23.57;22.00;;;;;;;;;;5074693;28;20419;-70
2022/07/16 12:46:28;;;;;;;22.60;21.07;;;;;;;;;;5074450;28;20415;-70
2022/07/16 12:48:57;;;;;;;23.40;22.03;;;;;;;;;;5074495;28;20788;-70
2022/07/16 12:51:27;;;;;;;21.77;20.47;;;;;;;;;;5074808;28;20531;-71
2022/07/16 12:53:54;;;;;;;23.10;21.40;;;;;;;;;;5074535;28;20471;-71
2022/07/16 12:59:08;;;;;;;23.23;21.73;;;;;;;;;;5074773;28;20529;-70
2022/07/16 13:01:36;;;;;;;23.17;21.67;;;;;;;;;;5074820;28;20464;-70
2022/07/16 13:04:03;;;;;;;21.70;20.30;;;;;;;;;;5074397;28;20563;-70
2022/07/16 13:06:31;;;;;;;22.03;20.63;;;;;;;;;;5074516;28;20416;-70
2022/07/16 13:08:58;;;;;;;21.67;20.27;;;;;;;;;;5074443;28;20428;-71
2022/07/16 13:11:27;;;;;;;24.23;22.53;;;;;;;;;;5073990;28;20416;-71
2022/07/16 13:13:54;;;;;;;23.50;21.80;;;;;;;;;;5073955;28;20506;-70
2022/07/16 13:16:23;;;;;;;22.93;21.33;;;;;;;;;;5074120;28;20456;-71
2022/07/16 13:18:51;;;;;;;23.20;21.70;;;;;;;;;;5073878;28;20445;-69
2022/07/16 13:21:19;;;;;;;23.30;21.70;;;;;;;;;;5073746;28;20435;-70
2022/07/16 13:23:46;;;;;;;22.37;20.77;;;;;;;;;;5073731;28;20411;-70
2022/07/16 13:26:14;;;;;;;23.40;21.80;;;;;;;;;;5073967;28;20562;-70
2022/07/16 13:28:41;;;;;;;22.90;21.40;;;;;;;;;;5073575;28;20952;-70
2022/07/16 13:31:09;;;;;;;22.63;21.30;;;;;;;;;;5073605;28;20449;-70
2022/07/16 13:33:37;;;;;;;22.27;20.87;;;;;;;;;;5073827;28;20419;-71
2022/07/16 13:36:09;;;;;;;23.60;22.00;;;;;;;;;;5072748;28;20418;-70
2022/07/16 13:38:37;;;;;;;24.50;23.00;;;;;;;;;;5073293;28;20420;-71
2022/07/16 13:41:04;;;;;;;23.47;22.10;;;;;;;;;;5073783;28;20534;-70
2022/07/16 13:43:32;;;;;;;24.03;22.53;;;;;;;;;;5073298;28;20917;-70
2022/07/16 13:45:59;;;;;;;23.80;22.40;;;;;;;;;;5073654;28;20883;-70
2022/07/16 13:48:27;;;;;;;24.70;23.10;;;;;;;;;;5073534;28;20420;-69
2022/07/16 13:50:55;;;;;;;23.80;22.27;;;;;;;;;;5073452;28;20848;-70
2022/07/16 13:53:23;;;;;;;23.83;22.27;;;;;;;;;;5073321;28;20854;-70
2022/07/16 13:55:50;;;;;;;23.50;22.00;;;;;;;;;;5073434;28;20420;-70
2022/07/16 13:58:22;;;;;;;22.00;20.70;;;;;;;;;;5073347;28;20423;-70
2022/07/16 14:00:50;;;;;;;22.87;21.30;;;;;;;;;;5073404;28;20428;-69
2022/07/16 14:03:18;;;;;;;23.30;21.77;;;;;;;;;;5073409;28;20434;-69
2022/07/16 14:05:46;;;;;;;23.10;21.53;;;;;;;;;;5073316;28;20466;-69
2022/07/16 14:08:15;;;;;;;23.00;21.57;;;;;;;;;;5073454;28;20760;-70
2022/07/16 14:10:42;;;;;;;22.77;21.30;;;;;;;;;;5073238;28;20420;-69
2022/07/16 14:13:10;;;;;;;23.07;21.63;;;;;;;;;;5072371;28;20415;-70
2022/07/16 14:15:37;;;;;;;23.10;21.70;;;;;;;;;;5072922;28;20508;-69
2022/07/16 14:18:05;;;;;;;22.33;20.93;;;;;;;;;;5072697;28;20436;-69
2022/07/16 14:20:33;;;;;;;24.40;22.63;;;;;;;;;;5073044;28;20400;-68
2022/07/16 14:23:00;;;;;;;23.83;22.43;;;;;;;;;;5072685;28;20404;-70
2022/07/16 14:25:29;;;;;;;22.53;21.23;;;;;;;;;;5072952;28;20846;-69
2022/07/16 14:27:57;;;;;;;23.43;21.87;;;;;;;;;;5073019;28;20424;-70